Time;durP1;ratioP1;P1;durP2;ratioP2;P2;SDS_P1;SDS_P2;PMS_P1;PMS_P2;Temp;Humidity;BMP_temperature;BMP_pressure;BME280_temperature;BME280_humidity;BME280_pressure;Samples;Min_cycle;Max_cycle;Signal;HPM_P1;HPM_P2
2023/06/04 00:02:05;;;;;;;4.23;3.97;;;12.10;47.70;;;;;;6330397;27;20233;-84
2023/06/04 00:05:09;;;;;;;3.43;3.33;;;12.10;48.00;;;;;;6305847;27;20974;-84
2023/06/04 00:08:12;;;;;;;3.30;3.20;;;12.10;47.80;;;;;;6317895;27;20762;-83
2023/06/04 00:11:16;;;;;;;3.57;3.37;;;12.10;47.90;;;;;;6311090;27;20373;-82
2023/06/04 00:14:20;;;;;;;5.80;3.70;;;12.10;48.60;;;;;;6322652;27;20369;-84
2023/06/04 00:17:24;;;;;;;3.00;2.90;;;12.00;48.10;;;;;;6313924;28;20240;-82
2023/06/04 00:20:27;;;;;;;2.70;2.70;;;12.00;47.90;;;;;;6312051;28;20233;-83
2023/06/04 00:23:30;;;;;;;3.20;3.10;;;12.00;48.20;;;;;;6315114;28;20251;-84
2023/06/04 00:26:34;;;;;;;3.20;3.10;;;12.00;48.30;;;;;;6323846;27;20236;-83
2023/06/04 00:29:38;;;;;;;3.67;3.47;;;12.00;48.40;;;;;;6329906;27;20227;-86
2023/06/04 00:32:42;;;;;;;3.50;3.20;;;12.00;48.70;;;;;;6307287;28;20261;-86
2023/06/04 00:35:45;;;;;;;3.23;3.10;;;11.90;48.70;;;;;;6319926;28;20254;-86
2023/06/04 00:38:48;;;;;;;3.07;2.97;;;11.90;48.90;;;;;;6304360;28;20256;-84
2023/06/04 00:41:52;;;;;;;3.10;3.10;;;11.90;49.10;;;;;;6311630;28;20612;-86
2023/06/04 00:44:59;;;;;;;3.20;3.10;;;11.80;49.20;;;;;;6312123;27;20236;-84
2023/06/04 00:48:03;;;;;;;3.00;2.90;;;11.70;49.20;;;;;;6320527;27;20240;-84
2023/06/04 00:51:08;;;;;;;2.60;2.50;;;11.70;49.70;;;;;;6320174;27;20232;-85
2023/06/04 00:54:13;;;;;;;3.20;3.00;;;11.70;49.70;;;;;;6317468;27;20220;-82
2023/06/04 00:57:17;;;;;;;2.90;2.87;;;11.60;50.60;;;;;;6315776;27;20239;-85
2023/06/04 01:00:22;;;;;;;3.07;2.97;;;11.50;50.60;;;;;;6300620;27;20233;-83
2023/06/04 01:03:29;;;;;;;2.60;2.60;;;11.50;50.60;;;;;;6314679;27;20914;-85
2023/06/04 01:06:39;;;;;;;2.97;2.90;;;11.50;50.70;;;;;;6295564;28;20233;-84
2023/06/04 01:09:42;;;;;;;3.03;2.90;;;11.50;50.80;;;;;;6303800;27;20838;-85
2023/06/04 01:12:46;;;;;;;2.70;2.70;;;11.50;50.80;;;;;;6311717;28;20776;-83
2023/06/04 01:15:50;;;;;;;2.70;2.70;;;11.50;50.90;;;;;;6313962;27;20323;-81
2023/06/04 01:18:55;;;;;;;2.77;2.67;;;11.40;51.00;;;;;;6310847;27;20244;-83
2023/06/04 01:22:05;;;;;;;2.60;2.60;;;11.40;51.30;;;;;;6311160;27;20240;-83
2023/06/04 01:25:19;;;;;;;2.83;2.73;;;11.40;51.30;;;;;;6312018;27;20224;-84
2023/06/04 01:28:22;;;;;;;3.20;3.10;;;11.30;51.50;;;;;;6312427;27;20233;-84
2023/06/04 01:31:32;;;;;;;3.40;3.20;;;11.40;51.50;;;;;;6311895;28;20240;-82
2023/06/04 01:34:45;;;;;;;3.03;2.83;;;11.30;51.60;;;;;;6308270;27;20907;-83
2023/06/04 01:37:48;;;;;;;2.90;2.90;;;11.30;51.50;;;;;;6297100;28;20235;-83
2023/06/04 01:40:55;;;;;;;2.87;2.77;;;11.30;51.80;;;;;;6332660;27;20251;-84
2023/06/04 01:43:59;;;;;;;3.10;2.90;;;11.20;51.90;;;;;;6329550;27;20328;-84
2023/06/04 01:47:03;;;;;;;2.60;2.60;;;11.10;51.90;;;;;;6310094;27;20293;-83
2023/06/04 01:50:09;;;;;;;3.00;2.80;;;11.10;52.00;;;;;;6300440;27;20233;-84
2023/06/04 01:53:12;;;;;;;2.70;2.60;;;11.10;52.10;;;;;;6305639;27;20834;-84
2023/06/04 01:56:15;;;;;;;3.00;2.90;;;11.10;52.30;;;;;;6306626;28;20225;-82
2023/06/04 01:59:19;;;;;;;3.20;3.10;;;11.00;52.50;;;;;;6315303;27;20876;-84
2023/06/04 02:02:23;;;;;;;3.10;2.90;;;11.00;52.60;;;;;;6318658;27;20244;-84
2023/06/04 02:05:27;;;;;;;3.00;2.90;;;10.90;52.70;;;;;;6310952;27;20308;-85
2023/06/04 02:08:33;;;;;;;3.27;3.10;;;10.80;53.00;;;;;;6307943;28;20245;-83
2023/06/04 02:11:38;;;;;;;3.17;3.10;;;10.80;53.10;;;;;;6305096;27;20244;-81
2023/06/04 02:14:41;;;;;;;3.00;2.90;;;10.80;53.10;;;;;;6302537;28;20298;-85
2023/06/04 02:17:50;;;;;;;2.90;2.90;;;10.70;53.30;;;;;;6311752;27;20254;-82
2023/06/04 02:20:53;;;;;;;2.90;2.90;;;10.70;53.50;;;;;;6331780;27;20904;-83
2023/06/04 02:23:56;;;;;;;3.40;3.30;;;10.60;53.60;;;;;;6317052;27;20271;-83
2023/06/04 02:27:00;;;;;;;3.20;3.10;;;10.60;53.70;;;;;;6309608;27;20235;-83
2023/06/04 02:30:03;;;;;;;3.33;3.17;;;10.50;53.80;;;;;;6311447;27;20377;-82
2023/06/04 02:33:09;;;;;;;3.23;3.03;;;10.50;54.00;;;;;;6316017;27;20224;-85
2023/06/04 02:36:13;;;;;;;2.93;2.83;;;10.50;54.10;;;;;;6312530;27;20230;-85
2023/06/04 02:39:16;;;;;;;3.13;3.03;;;10.40;54.20;;;;;;6302840;27;20312;-84
2023/06/04 02:42:20;;;;;;;3.30;3.20;;;10.40;54.40;;;;;;6325761;27;20923;-81
2023/06/04 02:45:23;;;;;;;3.10;3.00;;;10.40;54.30;;;;;;6315529;27;20239;-84
2023/06/04 02:48:28;;;;;;;3.13;3.00;;;10.40;54.30;;;;;;6323188;27;20719;-84
2023/06/04 02:51:32;;;;;;;2.97;2.77;;;10.40;54.50;;;;;;6306982;28;20244;-84
2023/06/04 02:54:35;;;;;;;3.30;3.20;;;10.40;54.50;;;;;;6315704;27;20236;-85
2023/06/04 02:57:41;;;;;;;3.00;2.90;;;10.40;54.50;;;;;;6301193;27;20229;-84
2023/06/04 03:00:45;;;;;;;3.07;2.90;;;10.40;54.50;;;;;;6316206;27;20237;-85
2023/06/04 03:03:49;;;;;;;3.30;2.90;;;10.40;54.60;;;;;;6309318;27;20920;-82
2023/06/04 03:06:57;;;;;;;3.30;3.20;;;10.30;54.60;;;;;;6315044;27;20275;-82
2023/06/04 03:10:01;;;;;;;3.00;2.90;;;10.40;54.70;;;;;;6305791;27;20240;-84
2023/06/04 03:13:05;;;;;;;3.03;3.03;;;10.40;54.80;;;;;;6306648;27;20240;-84
2023/06/04 03:16:10;;;;;;;3.50;3.40;;;10.40;54.80;;;;;;6304988;27;20232;-84
2023/06/04 03:19:16;;;;;;;3.60;3.40;;;10.40;54.80;;;;;;6322336;27;20232;-84
2023/06/04 03:22:20;;;;;;;3.00;3.00;;;10.40;54.90;;;;;;6308599;28;20667;-84
2023/06/04 03:25:23;;;;;;;3.00;2.90;;;10.40;54.90;;;;;;6336675;27;20240;-83
2023/06/04 03:28:27;;;;;;;3.13;2.93;;;10.40;55.00;;;;;;6319333;27;20230;-82
2023/06/04 03:31:32;;;;;;;2.90;2.77;;;10.40;55.10;;;;;;6305236;28;20248;-79
2023/06/04 03:34:37;;;;;;;3.13;3.03;;;10.40;55.30;;;;;;6319258;27;20629;-81
2023/06/04 03:37:40;;;;;;;3.57;3.37;;;10.40;55.50;;;;;;6314791;27;20240;-81
2023/06/04 03:40:44;;;;;;;2.80;2.80;;;10.50;55.60;;;;;;6302598;27;20248;-82
2023/06/04 03:43:47;;;;;;;3.03;3.00;;;10.50;55.60;;;;;;6321334;27;20818;-79
2023/06/04 03:46:51;;;;;;;3.13;3.00;;;10.50;55.50;;;;;;6305949;27;20257;-81
2023/06/04 03:49:55;;;;;;;3.20;3.10;;;10.50;55.30;;;;;;6322012;27;20231;-80
2023/06/04 03:52:58;;;;;;;3.20;3.10;;;10.50;55.30;;;;;;6319166;27;20237;-80
2023/06/04 03:56:02;;;;;;;2.97;2.87;;;10.60;55.40;;;;;;6313192;28;20358;-80
2023/06/04 03:59:06;;;;;;;3.20;3.10;;;10.60;55.40;;;;;;6310510;28;20238;-80
2023/06/04 04:02:09;;;;;;;3.77;3.40;;;10.60;55.40;;;;;;6315249;27;20323;-78
2023/06/04 04:05:14;;;;;;;3.00;2.90;;;10.70;55.40;;;;;;6318352;27;20381;-80
2023/06/04 04:08:21;;;;;;;3.13;3.03;;;10.70;55.40;;;;;;6301482;28;20728;-81
2023/06/04 04:11:25;;;;;;;3.00;3.00;;;10.70;55.40;;;;;;6312934;27;20247;-80
2023/06/04 04:14:28;;;;;;;3.47;3.37;;;10.70;55.50;;;;;;6309015;28;20229;-79
2023/06/04 04:17:31;;;;;;;2.77;2.77;;;10.80;55.50;;;;;;6317832;27;20259;-80
2023/06/04 04:20:36;;;;;;;3.30;3.20;;;10.80;55.50;;;;;;6308533;27;20310;-80
2023/06/04 04:23:40;;;;;;;3.23;3.13;;;10.90;55.60;;;;;;6319497;27;20265;-81
2023/06/04 04:26:44;;;;;;;2.93;2.93;;;10.90;55.40;;;;;;6320490;27;20607;-82
2023/06/04 04:29:48;;;;;;;3.50;3.33;;;11.00;55.50;;;;;;6318587;27;20237;-81
2023/06/04 04:32:51;;;;;;;3.43;3.33;;;11.00;55.50;;;;;;6310847;27;20236;-81
2023/06/04 04:35:57;;;;;;;3.00;2.90;;;11.10;55.50;;;;;;6314286;27;20321;-82
2023/06/04 04:39:00;;;;;;;2.90;2.80;;;11.20;55.70;;;;;;6341452;27;20246;-78
2023/06/04 04:42:03;;;;;;;3.30;3.20;;;11.30;55.60;;;;;;6353863;27;20228;-78
2023/06/04 04:45:09;;;;;;;3.13;3.03;;;11.40;55.60;;;;;;6339984;28;20228;-77
2023/06/04 04:48:12;;;;;;;3.03;2.93;;;11.50;55.60;;;;;;6343177;27;20482;-80
2023/06/04 04:51:17;;;;;;;3.87;3.60;;;11.70;55.50;;;;;;6362081;27;20257;-82
2023/06/04 04:54:20;;;;;;;3.27;3.17;;;11.90;55.80;;;;;;6360943;27;20225;-80
2023/06/04 04:57:24;;;;;;;3.63;3.47;;;12.00;55.50;;;;;;6344930;28;20237;-79
2023/06/04 05:00:27;;;;;;;3.23;3.10;;;12.30;55.10;;;;;;6361577;27;20235;-76
2023/06/04 05:03:31;;;;;;;2.97;2.87;;;12.70;55.20;;;;;;6357492;27;20220;-76
2023/06/04 05:06:35;;;;;;;3.30;3.30;;;13.10;54.70;;;;;;6333722;27;20360;-78
2023/06/04 05:09:39;;;;;;;3.37;3.17;;;13.50;54.10;;;;;;6341106;28;20228;-76
2023/06/04 05:12:52;;;;;;;3.10;2.90;;;13.90;54.10;;;;;;6342587;28;20223;-78
2023/06/04 05:15:56;;;;;;;3.43;3.10;;;14.30;53.70;;;;;;6331838;28;20254;-77
2023/06/04 05:19:02;;;;;;;3.43;3.13;;;14.60;53.30;;;;;;6344585;27;20232;-77
2023/06/04 05:22:08;;;;;;;3.17;3.00;;;15.00;52.80;;;;;;6327073;27;20260;-81
2023/06/04 05:25:11;;;;;;;3.43;3.10;;;15.40;51.80;;;;;;6311132;27;20252;-80
2023/06/04 05:28:16;;;;;;;5.90;3.20;;;15.70;50.10;;;;;;6303189;27;20236;-81
2023/06/04 05:31:20;;;;;;;2.97;2.77;;;16.10;50.20;;;;;;6304501;28;20376;-81
2023/06/04 05:34:23;;;;;;;3.20;3.03;;;16.40;50.30;;;;;;6305433;28;20622;-78
2023/06/04 05:37:28;;;;;;;3.13;3.03;;;16.70;50.10;;;;;;6312008;28;20784;-78
2023/06/04 05:40:32;;;;;;;2.90;2.80;;;17.00;48.50;;;;;;6310306;27;20852;-80
2023/06/04 05:43:35;;;;;;;7.10;2.93;;;17.30;47.20;;;;;;6314572;27;20224;-80
2023/06/04 05:46:38;;;;;;;3.03;2.70;;;17.50;46.80;;;;;;6309401;27;20288;-81
2023/06/04 05:49:41;;;;;;;2.83;2.60;;;17.70;46.50;;;;;;6305202;27;20323;-82
2023/06/04 05:52:46;;;;;;;2.90;2.80;;;18.00;46.20;;;;;;6311775;27;20274;-81
2023/06/04 05:55:49;;;;;;;2.70;2.50;;;18.20;46.20;;;;;;6338231;27;20240;-80
2023/06/04 05:58:53;;;;;;;2.70;2.60;;;18.50;46.30;;;;;;6313249;27;20856;-79
2023/06/04 06:01:56;;;;;;;2.63;2.53;;;18.70;43.80;;;;;;6313433;27;20704;-77
2023/06/04 06:04:59;;;;;;;2.20;2.20;;;19.00;43.90;;;;;;6302826;27;20240;-79
2023/06/04 06:08:04;;;;;;;3.00;2.80;;;19.30;43.30;;;;;;6318665;27;20270;-82
2023/06/04 06:11:07;;;;;;;2.43;2.33;;;19.50;43.80;;;;;;6310116;27;20241;-80
2023/06/04 06:14:13;;;;;;;2.47;2.37;;;19.90;43.40;;;;;;6318085;27;20225;-81
2023/06/04 06:17:16;;;;;;;2.50;2.30;;;20.10;42.50;;;;;;6332756;27;20221;-79
2023/06/04 06:20:21;;;;;;;2.20;2.17;;;20.30;40.80;;;;;;6347993;27;20263;-81
2023/06/04 06:23:27;;;;;;;2.40;2.30;;;20.30;40.60;;;;;;6349651;27;20287;-76
2023/06/04 06:26:31;;;;;;;2.40;1.90;;;20.30;40.80;;;;;;6356389;27;20211;-80
2023/06/04 06:29:35;;;;;;;2.43;2.33;;;20.60;41.10;;;;;;6351258;27;20223;-77
2023/06/04 06:32:38;;;;;;;2.40;2.30;;;20.90;39.20;;;;;;6343021;27;20262;-75
2023/06/04 06:35:41;;;;;;;2.10;2.00;;;20.90;39.40;;;;;;6355011;27;20287;-77
2023/06/04 06:38:46;;;;;;;2.27;2.17;;;21.00;40.70;;;;;;6354638;27;20215;-76
2023/06/04 06:41:49;;;;;;;2.70;1.97;;;21.10;39.20;;;;;;6357811;27;20348;-76
2023/06/04 06:44:52;;;;;;;4.87;2.43;;;21.50;38.20;;;;;;6344849;27;20474;-75
2023/06/04 06:47:55;;;;;;;2.40;1.70;;;21.70;39.60;;;;;;6342252;27;20293;-75
2023/06/04 06:50:58;;;;;;;1.90;1.90;;;21.70;39.00;;;;;;6342886;27;20220;-76
2023/06/04 06:54:03;;;;;;;1.80;1.70;;;21.70;38.70;;;;;;6332959;28;20257;-75
2023/06/04 06:57:08;;;;;;;1.80;1.70;;;21.90;38.40;;;;;;6343882;27;20220;-79
2023/06/04 07:00:12;;;;;;;1.60;1.60;;;22.00;37.50;;;;;;6308367;28;20317;-79
2023/06/04 07:03:16;;;;;;;1.93;1.93;;;22.30;37.50;;;;;;6312134;27;20228;-80
2023/06/04 07:06:19;;;;;;;1.90;1.80;;;22.30;36.00;;;;;;6334183;27;20297;-78
2023/06/04 07:09:24;;;;;;;1.80;1.80;;;22.10;36.60;;;;;;6337724;27;20231;-78
2023/06/04 07:12:27;;;;;;;2.00;2.00;;;22.10;36.90;;;;;;6340180;27;20835;-78
2023/06/04 07:15:30;;;;;;;1.60;1.50;;;21.90;38.40;;;;;;6341413;27;20291;-78
2023/06/04 07:18:33;;;;;;;1.57;1.57;;;21.90;37.10;;;;;;6342809;27;20775;-78
2023/06/04 07:21:36;;;;;;;2.20;1.53;;;22.00;37.10;;;;;;6313983;27;20296;-80
2023/06/04 07:24:41;;;;;;;2.77;1.60;;;21.80;38.20;;;;;;6308718;27;20236;-78
2023/06/04 07:27:44;;;;;;;1.70;1.70;;;21.90;38.00;;;;;;6314064;27;20328;-77
2023/06/04 07:30:50;;;;;;;1.70;1.70;;;21.90;37.50;;;;;;6315067;27;20312;-78
2023/06/04 07:33:53;;;;;;;2.77;1.83;;;21.90;38.20;;;;;;6314992;27;20259;-79
2023/06/04 07:36:56;;;;;;;1.73;1.60;;;21.70;38.00;;;;;;6308563;27;20744;-79
2023/06/04 07:40:01;;;;;;;1.60;1.60;;;21.50;37.10;;;;;;6330396;27;20300;-81
2023/06/04 07:43:04;;;;;;;1.63;1.53;;;21.50;37.20;;;;;;6311756;27;20233;-79
2023/06/04 07:46:07;;;;;;;1.70;1.40;;;21.40;38.30;;;;;;6319226;27;20233;-78
2023/06/04 07:49:10;;;;;;;1.77;1.50;;;21.40;38.70;;;;;;6315794;27;20246;-78
2023/06/04 07:52:14;;;;;;;1.93;1.70;;;21.10;37.30;;;;;;6323682;27;20706;-80
2023/06/04 07:55:19;;;;;;;1.47;1.47;;;21.00;37.70;;;;;;6311174;28;20592;-80
2023/06/04 07:58:22;;;;;;;1.60;1.60;;;21.10;37.50;;;;;;6298345;28;20232;-79
2023/06/04 08:01:25;;;;;;;1.93;1.60;;;21.10;36.90;;;;;;6298345;28;20245;-78
2023/06/04 08:04:29;;;;;;;1.37;1.37;;;20.90;37.10;;;;;;6311727;27;20228;-80
2023/06/04 08:07:32;;;;;;;2.73;1.60;;;20.70;38.20;;;;;;6308494;28;20230;-78
2023/06/04 08:10:36;;;;;;;1.60;1.50;;;20.80;37.80;;;;;;6294467;28;20378;-80
2023/06/04 08:13:41;;;;;;;1.87;1.77;;;20.80;37.80;;;;;;6324107;27;20594;-79
2023/06/04 08:16:44;;;;;;;1.50;1.50;;;20.70;37.50;;;;;;6312998;27;20755;-79
2023/06/04 08:19:47;;;;;;;1.70;1.60;;;20.60;37.60;;;;;;6315881;27;20240;-78
2023/06/04 08:22:51;;;;;;;1.60;1.50;;;20.50;37.60;;;;;;6328073;27;20245;-79
2023/06/04 08:25:55;;;;;;;2.03;1.50;;;20.60;37.70;;;;;;6327620;27;20239;-79
2023/06/04 08:28:58;;;;;;;1.50;1.50;;;20.70;38.20;;;;;;6334686;27;20242;-79
2023/06/04 08:32:02;;;;;;;2.77;1.50;;;20.80;38.50;;;;;;6331323;27;20322;-81
2023/06/04 08:35:06;;;;;;;2.17;1.70;;;20.90;37.50;;;;;;6327005;27;20409;-80
2023/06/04 08:38:09;;;;;;;1.80;1.80;;;20.80;37.20;;;;;;6332843;27;20239;-78
2023/06/04 08:41:21;;;;;;;1.63;1.63;;;20.80;37.10;;;;;;6331034;27;20762;-79
2023/06/04 08:44:25;;;;;;;1.67;1.67;;;20.90;37.90;;;;;;6325046;27;20828;-78
2023/06/04 08:47:30;;;;;;;1.57;1.47;;;21.00;37.10;;;;;;6333402;27;20261;-79
2023/06/04 08:50:35;;;;;;;1.87;1.80;;;21.10;36.40;;;;;;6324914;27;20224;-80
2023/06/04 08:53:38;;;;;;;1.83;1.50;;;21.10;37.30;;;;;;6304517;27;20817;-80
2023/06/04 08:56:46;;;;;;;3.03;1.90;;;21.40;37.50;;;;;;6326807;27;20221;-78
2023/06/04 08:59:50;;;;;;;1.90;1.77;;;21.50;36.50;;;;;;6315201;27;20634;-79
2023/06/04 09:02:54;;;;;;;1.40;1.40;;;21.50;36.00;;;;;;6313107;27;20233;-80
2023/06/04 09:05:58;;;;;;;4.23;1.80;;;21.40;36.50;;;;;;6310870;27;20228;-78
2023/06/04 09:09:07;;;;;;;1.70;1.60;;;21.50;37.20;;;;;;6319651;27;20231;-80
2023/06/04 09:12:16;;;;;;;1.80;1.80;;;21.90;36.40;;;;;;6315364;27;20282;-80
2023/06/04 09:15:19;;;;;;;1.60;1.60;;;22.00;36.10;;;;;;6315607;27;20244;-79
2023/06/04 09:18:22;;;;;;;1.80;1.73;;;22.00;35.80;;;;;;6337172;27;20244;-78
2023/06/04 09:21:27;;;;;;;1.83;1.73;;;21.90;35.80;;;;;;6334346;27;20232;-80
2023/06/04 09:24:41;;;;;;;1.90;1.80;;;21.90;35.50;;;;;;6326165;27;20224;-79
2023/06/04 09:27:46;;;;;;;2.03;2.03;;;21.70;35.80;;;;;;6348658;27;20231;-79
2023/06/04 09:30:53;;;;;;;1.57;1.50;;;21.90;36.20;;;;;;6335906;28;20232;-78
2023/06/04 09:33:56;;;;;;;1.63;1.63;;;21.70;35.70;;;;;;6338147;27;20231;-79
2023/06/04 09:37:00;;;;;;;1.60;1.50;;;21.60;35.80;;;;;;6331318;27;20740;-80
2023/06/04 09:40:05;;;;;;;1.57;1.57;;;21.50;36.00;;;;;;6337612;27;21000;-78
2023/06/04 09:43:12;;;;;;;3.60;1.67;;;21.70;36.40;;;;;;6292739;28;20248;-80
2023/06/04 09:46:16;;;;;;;1.90;1.60;;;21.80;36.50;;;;;;6307192;27;20290;-80
2023/06/04 09:49:20;;;;;;;1.90;1.80;;;21.90;36.00;;;;;;6302107;27;20248;-80
2023/06/04 09:52:35;;;;;;;3.70;1.83;;;22.00;35.20;;;;;;6308909;27;20333;-78
2023/06/04 09:55:38;;;;;;;1.50;1.50;;;21.80;36.10;;;;;;6317703;27;20307;-81
2023/06/04 09:58:43;;;;;;;2.03;1.93;;;21.90;36.50;;;;;;6312130;27;20682;-80
2023/06/04 10:01:47;;;;;;;2.03;2.03;;;22.00;36.20;;;;;;6309631;27;20898;-80
2023/06/04 10:04:56;;;;;;;3.43;1.90;;;22.10;36.30;;;;;;6316985;27;20232;-80
2023/06/04 10:08:03;;;;;;;1.90;1.80;;;22.00;36.10;;;;;;6311000;28;20484;-79
2023/06/04 10:11:07;;;;;;;1.87;1.77;;;21.90;36.30;;;;;;6333901;27;20236;-79
2023/06/04 10:14:20;;;;;;;2.67;1.90;;;21.90;37.00;;;;;;6315565;27;20244;-79
2023/06/04 10:17:24;;;;;;;1.77;1.70;;;22.00;36.00;;;;;;6315018;27;20326;-80
2023/06/04 10:20:29;;;;;;;1.63;1.60;;;22.00;36.50;;;;;;6301426;28;20263;-80
2023/06/04 10:23:32;;;;;;;1.53;1.53;;;22.10;36.40;;;;;;6313091;27;20237;-78
2023/06/04 10:26:36;;;;;;;2.40;2.37;;;22.20;36.00;;;;;;6315994;27;20225;-79
2023/06/04 10:29:41;;;;;;;2.33;2.13;;;22.30;35.80;;;;;;6311094;27;20306;-81
2023/06/04 10:32:44;;;;;;;2.13;2.07;;;22.20;35.90;;;;;;6311782;27;20230;-79
2023/06/04 10:35:48;;;;;;;3.13;2.10;;;22.20;35.60;;;;;;6320564;27;20809;-79
2023/06/04 10:38:53;;;;;;;1.90;1.80;;;22.20;35.80;;;;;;6309200;28;20599;-79
2023/06/04 10:42:00;;;;;;;1.67;1.60;;;22.10;35.70;;;;;;6311385;27;20243;-80
2023/06/04 10:45:06;;;;;;;3.80;1.87;;;22.20;35.50;;;;;;6327020;27;20836;-78
2023/06/04 10:48:10;;;;;;;2.10;2.10;;;22.10;35.60;;;;;;6312893;28;20236;-80
2023/06/04 10:51:14;;;;;;;1.73;1.73;;;22.00;35.70;;;;;;6325827;27;20335;-80
2023/06/04 10:54:25;;;;;;;1.83;1.73;;;21.90;36.30;;;;;;6310430;28;20236;-79
2023/06/04 10:57:28;;;;;;;1.87;1.77;;;21.90;35.20;;;;;;6309346;27;20234;-81
2023/06/04 11:00:40;;;;;;;1.90;1.80;;;21.90;35.70;;;;;;6323761;27;20236;-83
2023/06/04 11:03:43;;;;;;;1.73;1.30;;;22.00;35.30;;;;;;6318530;27;20660;-79
2023/06/04 11:06:48;;;;;;;1.90;1.80;;;22.20;35.70;;;;;;6312380;27;20233;-80
2023/06/04 11:09:51;;;;;;;2.00;1.77;;;22.20;35.10;;;;;;6308097;27;20289;-81
2023/06/04 11:12:55;;;;;;;2.20;2.10;;;22.10;35.70;;;;;;6304937;27;20786;-80
2023/06/04 11:15:59;;;;;;;4.00;1.87;;;22.40;35.70;;;;;;6309853;27;20766;-80
2023/06/04 11:19:03;;;;;;;1.80;1.70;;;22.50;35.70;;;;;;6305787;28;20313;-81
2023/06/04 11:22:06;;;;;;;1.80;1.70;;;22.60;35.50;;;;;;6312538;27;20244;-79
2023/06/04 11:25:10;;;;;;;1.67;1.67;;;22.70;35.40;;;;;;6318033;27;20330;-80
2023/06/04 11:28:18;;;;;;;2.07;1.97;;;22.70;35.10;;;;;;6304755;28;20237;-81
2023/06/04 11:31:22;;;;;;;2.33;1.80;;;22.70;35.00;;;;;;6326133;27;20254;-80
2023/06/04 11:34:26;;;;;;;1.70;1.70;;;22.50;35.60;;;;;;6356723;27;20233;-77
2023/06/04 11:37:32;;;;;;;1.73;1.63;;;22.30;36.00;;;;;;6337488;27;20220;-79
2023/06/04 11:40:35;;;;;;;2.37;2.00;;;22.30;36.30;;;;;;6340859;27;20216;-80
2023/06/04 11:43:40;;;;;;;2.07;1.97;;;22.50;35.40;;;;;;6338652;27;20245;-81
2023/06/04 11:46:44;;;;;;;1.90;1.80;;;22.60;35.30;;;;;;6342959;27;20220;-78
2023/06/04 11:49:48;;;;;;;4.97;1.93;;;22.90;35.70;;;;;;6336435;27;20226;-77
2023/06/04 11:52:54;;;;;;;2.00;1.80;;;23.10;35.10;;;;;;6348590;27;20345;-79
2023/06/04 11:55:57;;;;;;;2.20;2.00;;;23.30;34.90;;;;;;6335159;27;20221;-79
2023/06/04 11:59:00;;;;;;;2.50;1.90;;;23.00;35.10;;;;;;6332952;28;20227;-81
2023/06/04 12:02:07;;;;;;;2.17;2.07;;;23.20;34.60;;;;;;6345697;28;20233;-80
2023/06/04 12:05:15;;;;;;;1.60;1.60;;;23.30;35.00;;;;;;6329799;27;20617;-80
2023/06/04 12:08:18;;;;;;;1.77;1.77;;;23.10;34.60;;;;;;6345190;27;20237;-78
2023/06/04 12:11:31;;;;;;;1.80;1.80;;;22.90;34.80;;;;;;6327736;27;20235;-80
2023/06/04 12:14:34;;;;;;;1.80;1.80;;;23.10;35.60;;;;;;6321872;27;20630;-79
2023/06/04 12:17:51;;;;;;;2.03;1.93;;;23.10;35.50;;;;;;6344608;27;20247;-78
2023/06/04 12:20:54;;;;;;;1.90;1.90;;;23.40;35.20;;;;;;6330195;27;20293;-78
2023/06/04 12:24:07;;;;;;;2.13;2.03;;;23.40;34.80;;;;;;6358554;27;20848;-80
2023/06/04 12:27:11;;;;;;;2.07;1.97;;;23.40;34.50;;;;;;6347090;27;20227;-79
2023/06/04 12:30:15;;;;;;;2.10;1.93;;;23.20;35.00;;;;;;6344205;27;20632;-81
2023/06/04 12:33:20;;;;;;;2.20;2.10;;;23.40;34.70;;;;;;6328842;27;20325;-79
2023/06/04 12:36:23;;;;;;;2.17;2.07;;;23.50;35.10;;;;;;6329397;28;20399;-79
2023/06/04 12:39:26;;;;;;;2.00;1.90;;;23.20;34.80;;;;;;6333304;27;20239;-81
2023/06/04 12:42:30;;;;;;;3.00;2.10;;;23.30;34.70;;;;;;6322662;28;20276;-82
2023/06/04 12:45:33;;;;;;;3.17;2.10;;;23.20;34.70;;;;;;6328509;27;20323;-81
2023/06/04 12:48:37;;;;;;;1.70;1.70;;;23.30;34.20;;;;;;6335474;27;20304;-80
2023/06/04 12:51:40;;;;;;;3.60;2.00;;;23.20;34.90;;;;;;6336699;27;20347;-79
2023/06/04 12:54:44;;;;;;;1.90;1.90;;;23.30;34.30;;;;;;6330097;27;20266;-79
2023/06/04 12:57:48;;;;;;;1.77;1.77;;;23.40;34.40;;;;;;6335821;27;20228;-79
2023/06/04 13:00:51;;;;;;;2.33;2.13;;;23.60;33.70;;;;;;6327907;27;20283;-82
2023/06/04 13:03:56;;;;;;;2.93;1.83;;;23.40;34.20;;;;;;6335327;27;20339;-82
2023/06/04 13:06:59;;;;;;;1.80;1.80;;;23.50;34.20;;;;;;6331180;27;20239;-80
2023/06/04 13:10:03;;;;;;;1.90;1.90;;;23.60;34.30;;;;;;6332554;27;20235;-80
2023/06/04 13:13:06;;;;;;;2.13;2.00;;;23.60;33.90;;;;;;6333938;27;20369;-81
2023/06/04 13:16:12;;;;;;;2.53;1.87;;;23.60;34.60;;;;;;6330285;27;20320;-80
2023/06/04 13:19:16;;;;;;;2.23;2.03;;;23.60;34.30;;;;;;6320204;27;20225;-83
2023/06/04 13:22:20;;;;;;;6.40;2.37;;;23.90;34.50;;;;;;6335440;27;20240;-79
2023/06/04 13:25:23;;;;;;;2.27;2.07;;;24.00;34.40;;;;;;6333126;27;20723;-82
2023/06/04 13:28:26;;;;;;;2.13;2.10;;;23.90;34.10;;;;;;6341209;27;20774;-81
2023/06/04 13:31:30;;;;;;;1.67;1.67;;;23.90;34.30;;;;;;6332416;27;20244;-80
2023/06/04 13:34:35;;;;;;;2.10;2.10;;;23.90;33.60;;;;;;6327871;27;20250;-81
2023/06/04 13:37:38;;;;;;;2.63;2.30;;;23.90;34.40;;;;;;6318175;28;20313;-80
2023/06/04 13:40:42;;;;;;;3.17;1.80;;;24.00;34.90;;;;;;6328149;27;20239;-81
2023/06/04 13:43:45;;;;;;;2.53;2.10;;;24.00;34.30;;;;;;6331972;27;21039;-79
2023/06/04 13:46:49;;;;;;;2.47;2.43;;;24.10;34.70;;;;;;6324890;27;20235;-81
2023/06/04 13:49:53;;;;;;;3.77;2.33;;;24.00;34.50;;;;;;6334108;27;20224;-81
2023/06/04 13:52:57;;;;;;;2.03;1.90;;;24.30;34.80;;;;;;6324394;27;20718;-82
2023/06/04 13:56:00;;;;;;;2.00;2.00;;;24.40;34.30;;;;;;6336081;27;20251;-82
2023/06/04 13:59:03;;;;;;;3.60;2.33;;;24.40;33.70;;;;;;6328647;27;20610;-84
2023/06/04 14:02:07;;;;;;;2.53;2.40;;;24.30;33.60;;;;;;6306714;27;20305;-82
2023/06/04 14:05:12;;;;;;;1.90;1.90;;;24.20;33.90;;;;;;6305527;28;20232;-81
2023/06/04 14:08:15;;;;;;;1.90;1.80;;;24.00;33.70;;;;;;6309752;28;20311;-83
2023/06/04 14:11:19;;;;;;;2.10;2.03;;;24.00;34.70;;;;;;6318325;27;20261;-80
2023/06/04 14:14:24;;;;;;;1.97;1.97;;;24.20;33.80;;;;;;6318688;27;20321;-82
2023/06/04 14:17:27;;;;;;;3.20;2.83;;;24.00;33.50;;;;;;6307774;27;20626;-83
2023/06/04 14:20:32;;;;;;;2.17;2.03;;;24.10;33.60;;;;;;6308147;27;20229;-81
2023/06/04 14:23:35;;;;;;;1.90;1.90;;;24.10;33.30;;;;;;6311947;27;20267;-81
2023/06/04 14:26:38;;;;;;;2.40;2.30;;;24.20;34.00;;;;;;6317541;27;20236;-82
2023/06/04 14:29:41;;;;;;;1.93;1.93;;;24.20;33.30;;;;;;6307933;27;20236;-79
2023/06/04 14:32:45;;;;;;;2.07;1.97;;;24.40;33.80;;;;;;6308475;28;20240;-79
2023/06/04 14:35:49;;;;;;;2.10;1.90;;;24.50;34.10;;;;;;6305819;28;20660;-81
2023/06/04 14:38:52;;;;;;;2.20;1.80;;;24.70;33.90;;;;;;6326117;27;20237;-80
2023/06/04 14:41:55;;;;;;;2.23;2.03;;;24.80;33.50;;;;;;6324639;27;20264;-81
2023/06/04 14:44:58;;;;;;;2.07;1.97;;;24.70;33.70;;;;;;6314010;27;20707;-81
2023/06/04 14:48:02;;;;;;;2.37;2.03;;;24.60;33.20;;;;;;6314361;27;20240;-80
2023/06/04 14:51:18;;;;;;;5.80;2.23;;;24.50;34.10;;;;;;6327744;27;20234;-82
2023/06/04 14:54:22;;;;;;;2.97;2.77;;;24.60;33.40;;;;;;6315625;28;20236;-79
2023/06/04 14:57:26;;;;;;;2.43;2.43;;;24.60;33.70;;;;;;6308772;28;20327;-82
2023/06/04 15:00:30;;;;;;;3.67;2.33;;;24.60;33.30;;;;;;6305313;27;20723;-81
2023/06/04 15:03:33;;;;;;;4.90;2.23;;;24.60;33.30;;;;;;6313150;27;20496;-79
2023/06/04 15:06:38;;;;;;;2.17;2.07;;;24.70;33.70;;;;;;6318323;27;20237;-80
2023/06/04 15:09:41;;;;;;;2.20;2.10;;;24.80;33.70;;;;;;6311736;27;20264;-82
2023/06/04 15:12:45;;;;;;;2.33;2.23;;;24.80;33.70;;;;;;6316996;27;20624;-80
2023/06/04 15:15:48;;;;;;;2.63;2.40;;;24.80;33.80;;;;;;6307895;28;20541;-80
2023/06/04 15:18:51;;;;;;;2.77;2.43;;;24.80;33.60;;;;;;6329052;27;20239;-81
2023/06/04 15:21:56;;;;;;;2.93;2.93;;;24.90;33.90;;;;;;6314953;27;20243;-81
2023/06/04 15:24:59;;;;;;;2.10;2.10;;;24.80;33.60;;;;;;6315873;27;20350;-82
2023/06/04 15:28:02;;;;;;;2.67;2.47;;;24.70;33.50;;;;;;6313672;27;20847;-82
2023/06/04 15:31:05;;;;;;;4.60;4.40;;;24.70;34.00;;;;;;6313096;27;20894;-81
2023/06/04 15:34:09;;;;;;;2.27;2.20;;;24.70;34.20;;;;;;6313285;28;20776;-82
2023/06/04 15:37:14;;;;;;;2.23;2.13;;;24.80;33.80;;;;;;6312203;27;20375;-81
2023/06/04 15:40:17;;;;;;;2.30;2.10;;;24.60;33.70;;;;;;6302197;28;20742;-82
2023/06/04 15:43:21;;;;;;;2.07;1.97;;;24.60;34.30;;;;;;6313375;28;20252;-81
2023/06/04 15:46:25;;;;;;;1.93;1.90;;;24.60;34.60;;;;;;6307124;28;20284;-81
2023/06/04 15:49:28;;;;;;;2.97;2.77;;;24.60;34.10;;;;;;6305155;27;20233;-81
2023/06/04 15:52:33;;;;;;;2.80;2.70;;;24.70;34.20;;;;;;6313194;27;20258;-83
2023/06/04 15:55:36;;;;;;;2.27;2.17;;;24.60;34.10;;;;;;6310373;28;20236;-81
2023/06/04 15:58:39;;;;;;;2.40;2.30;;;24.60;34.60;;;;;;6305506;28;20240;-80
2023/06/04 16:01:44;;;;;;;2.23;2.13;;;24.60;34.30;;;;;;6313064;28;20239;-83